createdAt,value
2018-10-21T00:00:41.674Z,34.07
2018-10-21T00:03:11.237Z,31.97
2018-10-21T00:05:41.082Z,33.67
2018-10-21T00:08:10.647Z,33.03
2018-10-21T00:10:40.411Z,32.67
2018-10-21T00:13:10.213Z,32.33
2018-10-21T00:15:40.271Z,35.07
2018-10-21T00:18:09.763Z,33.47
2018-10-21T00:20:39.644Z,33.93
2018-10-21T00:23:09.389Z,34.40
2018-10-21T00:25:39.244Z,32.50
2018-10-21T00:28:09.262Z,33.27
2018-10-21T00:30:38.911Z,34.47
2018-10-21T00:33:10.040Z,35.07
2018-10-21T00:35:39.894Z,31.90
2018-10-21T00:38:09.563Z,34.67
2018-10-21T00:40:39.362Z,32.37
2018-10-21T00:43:09.303Z,32.67
2018-10-21T00:45:38.981Z,36.30
2018-10-21T00:48:08.704Z,34.57
2018-10-21T00:50:38.418Z,32.17
2018-10-21T00:53:08.169Z,32.90
2018-10-21T00:55:37.911Z,33.57
2018-10-21T00:58:07.604Z,34.17
2018-10-21T01:00:37.399Z,33.50
2018-10-21T01:03:07.376Z,34.53
2018-10-21T01:05:37.187Z,32.60
2018-10-21T01:08:07.146Z,30.93
2018-10-21T01:10:37.015Z,31.67
2018-10-21T01:13:06.858Z,32.00
2018-10-21T01:15:36.584Z,31.10
2018-10-21T01:18:06.922Z,31.07
2018-10-21T01:20:36.601Z,30.87
2018-10-21T01:23:06.477Z,30.90
2018-10-21T01:25:36.188Z,30.73
2018-10-21T01:28:06.407Z,29.63
2018-10-21T01:30:36.529Z,31.37
2018-10-21T01:33:06.728Z,30.20
2018-10-21T01:35:36.323Z,30.47
2018-10-21T01:38:06.120Z,29.40
2018-10-21T01:40:40.697Z,30.97
2018-10-21T01:43:11.542Z,30.17
2018-10-21T01:45:41.845Z,30.13
2018-10-21T01:48:12.556Z,30.53
2018-10-21T01:50:42.034Z,32.37
2018-10-21T01:53:12.620Z,32.17
2018-10-21T01:55:42.252Z,31.17
2018-10-21T01:58:12.012Z,30.80
2018-10-21T02:00:42.249Z,30.27
2018-10-21T02:03:12.155Z,31.27
2018-10-21T02:05:42.710Z,32.03
2018-10-21T02:08:12.629Z,31.43
2018-10-21T02:10:42.523Z,29.97
2018-10-21T02:13:12.226Z,29.03
2018-10-21T02:15:41.904Z,30.07
2018-10-21T02:18:11.642Z,30.57
2018-10-21T02:20:41.181Z,28.13
2018-10-21T02:23:10.866Z,29.10
2018-10-21T02:25:40.610Z,30.07
2018-10-21T02:28:10.658Z,30.43
2018-10-21T02:30:40.392Z,30.77
2018-10-21T02:33:10.309Z,30.33
2018-10-21T02:35:39.963Z,29.47
2018-10-21T02:38:09.711Z,30.93
2018-10-21T02:41:48.055Z,30.80
2018-10-21T02:44:20.177Z,29.57
2018-10-21T02:46:51.072Z,32.27
2018-10-21T02:49:21.375Z,30.33
2018-10-21T02:51:56.196Z,31.47
2018-10-21T02:54:27.179Z,30.67
2018-10-21T02:56:56.933Z,30.07
2018-10-21T02:59:27.030Z,30.53
2018-10-21T03:01:56.763Z,27.83
2018-10-21T03:04:26.493Z,28.77
2018-10-21T03:06:56.291Z,28.63
2018-10-21T03:09:26.049Z,29.77
2018-10-21T03:11:55.673Z,30.10
2018-10-21T03:14:25.364Z,30.17
2018-10-21T03:16:55.007Z,29.10
2018-10-21T03:19:24.771Z,30.83
2018-10-21T03:21:54.663Z,30.67
2018-10-21T03:24:24.459Z,31.40
2018-10-21T03:26:54.072Z,30.53
2018-10-21T03:29:23.704Z,32.47
2018-10-21T03:31:53.356Z,30.90
2018-10-21T03:34:23.152Z,30.40
2018-10-21T03:36:52.869Z,30.20
2018-10-21T03:39:22.402Z,30.70
2018-10-21T03:41:52.065Z,30.83
2018-10-21T03:44:21.742Z,31.47
2018-10-21T03:46:51.483Z,31.40
2018-10-21T03:49:21.041Z,33.77
2018-10-21T03:51:51.283Z,32.90
2018-10-21T03:54:21.013Z,33.20
2018-10-21T03:56:50.772Z,33.83
2018-10-21T03:59:20.358Z,32.13
2018-10-21T04:01:50.043Z,33.37
2018-10-21T04:04:19.912Z,33.37
2018-10-21T04:06:50.640Z,34.60
2018-10-21T04:09:20.108Z,33.33
2018-10-21T04:11:50.272Z,34.13
2018-10-21T04:14:20.413Z,34.80
2018-10-21T04:16:50.299Z,33.40
2018-10-21T04:19:19.946Z,32.60
2018-10-21T04:21:50.347Z,32.87
2018-10-21T04:24:19.981Z,33.33
2018-10-21T04:26:49.720Z,35.57
2018-10-21T04:29:20.173Z,32.03
2018-10-21T04:31:50.100Z,33.83
2018-10-21T04:34:19.751Z,36.50
2018-10-21T04:36:49.362Z,35.80
2018-10-21T04:39:30.693Z,35.77
2018-10-21T04:42:00.700Z,35.17
2018-10-21T04:44:30.535Z,34.80
2018-10-21T04:47:00.415Z,36.73
2018-10-21T04:49:30.392Z,34.83
2018-10-21T04:52:00.183Z,36.07
2018-10-21T04:54:33.856Z,36.53
2018-10-21T04:57:05.199Z,34.63
2018-10-21T04:59:35.277Z,33.17
2018-10-21T05:02:04.926Z,35.57
2018-10-21T05:04:34.599Z,33.90
2018-10-21T05:07:04.425Z,34.33
2018-10-21T05:09:34.245Z,34.43
2018-10-21T05:12:04.192Z,34.93
2018-10-21T05:14:33.932Z,34.30
2018-10-21T05:17:03.573Z,35.13
2018-10-21T05:19:33.351Z,35.53
2018-10-21T05:22:03.879Z,35.47
2018-10-21T05:24:33.542Z,34.53
2018-10-21T05:27:03.308Z,34.83
2018-10-21T05:29:33.158Z,32.57
2018-10-21T05:32:02.935Z,30.77
2018-10-21T05:34:32.731Z,31.67
2018-10-21T05:37:02.376Z,36.97
2018-10-21T05:39:32.382Z,32.30
2018-10-21T05:42:02.527Z,33.07
2018-10-21T05:44:32.227Z,32.47
2018-10-21T05:47:01.951Z,32.77
2018-10-21T05:49:31.699Z,31.13
2018-10-21T05:52:01.466Z,31.53
2018-10-21T05:54:31.329Z,31.90
2018-10-21T05:57:01.048Z,33.40
2018-10-21T05:59:30.827Z,32.10
2018-10-21T06:02:00.414Z,31.53
2018-10-21T06:04:30.289Z,31.47
2018-10-21T06:07:01.173Z,32.33
2018-10-21T06:09:30.927Z,32.90
2018-10-21T06:12:00.678Z,31.97
2018-10-21T06:14:30.435Z,30.83
2018-10-21T06:17:32.617Z,30.70
2018-10-21T06:20:07.741Z,30.47
2018-10-21T06:22:42.990Z,28.60
2018-10-21T06:25:12.625Z,27.97
2018-10-21T06:27:42.361Z,28.97
2018-10-21T06:30:13.017Z,28.67
2018-10-21T06:32:42.888Z,28.27
2018-10-21T06:35:12.636Z,28.63
2018-10-21T06:37:42.273Z,29.77
2018-10-21T06:40:12.729Z,30.37
2018-10-21T06:42:42.539Z,27.57
2018-10-21T06:45:12.905Z,29.60
2018-10-21T06:47:43.165Z,30.37
2018-10-21T06:50:20.785Z,28.10
2018-10-21T06:52:50.756Z,31.10
2018-10-21T06:55:20.462Z,30.23
2018-10-21T06:57:50.283Z,29.10
2018-10-21T07:00:20.005Z,29.27
2018-10-21T07:02:49.637Z,30.50
2018-10-21T07:05:30.197Z,31.50
2018-10-21T07:08:00.070Z,31.17
2018-10-21T07:10:29.823Z,30.93
2018-10-21T07:12:59.277Z,33.03
2018-10-21T07:15:28.943Z,30.90
2018-10-21T07:17:58.604Z,30.47
2018-10-21T07:20:28.412Z,32.40
2018-10-21T07:22:58.160Z,31.83
2018-10-21T07:25:27.973Z,30.77
2018-10-21T07:27:57.808Z,30.63
2018-10-21T07:30:27.619Z,30.73
2018-10-21T07:32:57.370Z,30.43
2018-10-21T07:35:27.180Z,32.10
2018-10-21T07:37:56.966Z,34.67
2018-10-21T07:40:26.668Z,36.53
2018-10-21T07:42:56.403Z,33.60
2018-10-21T07:45:26.149Z,33.63
2018-10-21T07:47:55.881Z,36.83
2018-10-21T07:50:25.696Z,35.87
2018-10-21T07:52:55.434Z,35.90
2018-10-21T07:55:25.341Z,35.07
2018-10-21T07:57:54.973Z,33.97
2018-10-21T08:00:24.924Z,36.37
2018-10-21T08:02:54.636Z,38.83
2018-10-21T08:05:35.298Z,37.83
2018-10-21T08:08:15.527Z,37.30
2018-10-21T08:10:45.275Z,38.07
2018-10-21T08:13:16.509Z,38.33
2018-10-21T08:15:46.374Z,40.13
2018-10-21T08:18:16.615Z,41.40
2018-10-21T08:20:47.568Z,38.13
2018-10-21T08:23:18.300Z,39.27
2018-10-21T08:25:49.422Z,40.33
2018-10-21T08:28:19.173Z,39.63
2018-10-21T08:30:48.877Z,37.93
2018-10-21T08:33:18.758Z,33.03
2018-10-21T08:35:48.343Z,31.77
2018-10-21T08:38:18.031Z,31.07
2018-10-21T08:40:47.796Z,31.57
2018-10-21T08:43:17.447Z,34.23
2018-10-21T08:45:47.190Z,33.10
2018-10-21T08:48:16.899Z,32.83
2018-10-21T08:50:46.614Z,34.77
2018-10-21T08:53:16.156Z,40.07
2018-10-21T08:55:45.911Z,34.00
2018-10-21T08:58:15.837Z,34.60
2018-10-21T09:00:45.729Z,35.67
2018-10-21T09:03:15.527Z,38.40
2018-10-21T09:05:45.414Z,39.27
2018-10-21T09:08:15.250Z,40.97
2018-10-21T09:10:45.171Z,42.83
2018-10-21T09:13:14.837Z,43.30
2018-10-21T09:15:44.324Z,45.20
2018-10-21T09:18:13.945Z,41.63
2018-10-21T09:20:43.740Z,44.57
2018-10-21T09:23:13.252Z,36.30
2018-10-21T09:25:43.091Z,36.87
2018-10-21T09:28:12.960Z,33.23
2018-10-21T09:30:42.613Z,30.23
2018-10-21T09:33:13.246Z,30.10
2018-10-21T09:35:44.906Z,27.33
2018-10-21T09:38:14.513Z,29.13
2018-10-21T09:40:44.163Z,27.50
2018-10-21T09:43:14.148Z,28.30
2018-10-21T09:45:43.799Z,25.23
2018-10-21T09:48:13.536Z,26.60
2018-10-21T09:50:44.090Z,24.43
2018-10-21T09:53:14.523Z,25.93
2018-10-21T09:55:44.384Z,24.50
2018-10-21T09:58:14.098Z,22.77
2018-10-21T10:00:48.655Z,23.50
2018-10-21T10:03:18.380Z,22.00
2018-10-21T10:05:48.161Z,23.07
2018-10-21T10:08:18.690Z,24.80
2018-10-21T10:10:48.405Z,20.30
2018-10-21T10:13:18.184Z,21.90
2018-10-21T10:15:47.687Z,23.27
2018-10-21T10:18:17.460Z,24.73
2018-10-21T10:20:47.239Z,22.03
2018-10-21T10:23:16.981Z,25.77
2018-10-21T10:25:46.684Z,23.93
2018-10-21T10:28:16.882Z,25.40
2018-10-21T10:30:47.089Z,23.53
2018-10-21T10:33:16.893Z,24.80
2018-10-21T10:35:46.615Z,25.80
2018-10-21T10:38:16.591Z,43.43
2018-10-21T10:40:46.226Z,25.30
2018-10-21T10:43:16.805Z,25.20
2018-10-21T10:45:46.569Z,24.60
2018-10-21T10:48:16.474Z,24.97
2018-10-21T10:50:46.228Z,24.37
2018-10-21T10:53:16.116Z,24.70
2018-10-21T10:55:50.609Z,24.20
2018-10-21T10:58:20.619Z,26.23
2018-10-21T11:00:50.298Z,26.20
2018-10-21T11:03:20.091Z,24.60
2018-10-21T11:05:49.840Z,21.00
2018-10-21T11:08:19.671Z,22.70
2018-10-21T11:10:49.354Z,22.67
2018-10-21T11:13:18.996Z,21.90
2018-10-21T11:15:48.526Z,23.53
2018-10-21T11:18:18.438Z,22.00
2018-10-21T11:20:48.176Z,20.03
2018-10-21T11:23:18.047Z,20.47
2018-10-21T11:25:47.511Z,20.20
2018-10-21T11:28:17.316Z,20.17
2018-10-21T11:30:46.970Z,20.77
2018-10-21T11:33:16.818Z,20.87
2018-10-21T11:35:46.742Z,21.43
2018-10-21T11:38:16.482Z,20.50
2018-10-21T11:40:46.280Z,19.60
2018-10-21T11:43:16.069Z,19.93
2018-10-21T11:45:45.872Z,18.67
2018-10-21T11:48:15.275Z,21.67
2018-10-21T11:50:45.824Z,20.20
2018-10-21T11:53:15.560Z,20.07
2018-10-21T11:55:45.299Z,19.47
2018-10-21T11:58:16.058Z,20.70
2018-10-21T12:00:46.943Z,20.17
2018-10-21T12:03:16.538Z,18.83
2018-10-21T12:05:46.331Z,18.30
2018-10-21T12:08:15.872Z,19.13
2018-10-21T12:10:45.451Z,18.63
2018-10-21T12:13:15.231Z,17.03
2018-10-21T12:15:44.787Z,21.27
2018-10-21T12:18:14.516Z,18.67
2018-10-21T12:20:44.206Z,16.87
2018-10-21T12:23:14.142Z,19.93
2018-10-21T12:25:43.769Z,18.53
2018-10-21T12:28:14.312Z,18.80
2018-10-21T12:30:43.905Z,17.10
2018-10-21T12:33:13.660Z,17.43
2018-10-21T12:35:43.297Z,18.70
2018-10-21T12:38:13.075Z,18.33
2018-10-21T12:40:42.906Z,15.73
2018-10-21T12:43:12.421Z,15.27
2018-10-21T12:45:42.108Z,16.17
2018-10-21T12:48:11.771Z,16.20
2018-10-21T12:50:41.547Z,15.53
2018-10-21T12:53:11.254Z,13.37
2018-10-21T12:55:45.919Z,14.40
2018-10-21T12:58:15.704Z,13.60
2018-10-21T13:00:45.405Z,13.23
2018-10-21T13:03:15.307Z,17.10
2018-10-21T13:05:45.099Z,14.97
2018-10-21T13:08:14.742Z,12.17
2018-10-21T13:10:44.699Z,12.53
2018-10-21T13:13:14.583Z,11.53
2018-10-21T13:15:44.465Z,12.50
2018-10-21T13:18:15.111Z,11.10
2018-10-21T13:20:44.862Z,12.03
2018-10-21T13:23:14.433Z,12.67
2018-10-21T13:25:44.218Z,13.77
2018-10-21T13:28:13.948Z,12.97
2018-10-21T13:30:43.647Z,12.67
2018-10-21T13:33:13.435Z,13.63
2018-10-21T13:35:43.262Z,12.43
2018-10-21T13:38:13.066Z,11.70
2018-10-21T13:40:42.894Z,12.03
2018-10-21T13:43:12.754Z,12.10
2018-10-21T13:45:42.566Z,12.87
2018-10-21T13:48:12.295Z,13.67
2018-10-21T13:50:42.063Z,11.87
2018-10-21T13:53:11.885Z,11.53
2018-10-21T13:55:41.295Z,12.13
2018-10-21T13:58:11.164Z,11.47
2018-10-21T14:00:41.015Z,13.17
2018-10-21T14:03:10.757Z,12.67
2018-10-21T14:05:40.376Z,12.10
2018-10-21T14:08:10.167Z,10.70
2018-10-21T14:10:39.876Z,12.20
2018-10-21T14:13:09.743Z,11.70
2018-10-21T14:15:39.529Z,11.60
2018-10-21T14:18:09.116Z,12.10
2018-10-21T14:20:38.951Z,11.17
2018-10-21T14:23:08.675Z,11.50
2018-10-21T14:25:38.602Z,11.67
2018-10-21T14:28:08.476Z,12.43
2018-10-21T14:30:38.225Z,11.10
2018-10-21T14:33:09.215Z,11.20
2018-10-21T14:35:38.784Z,11.37
2018-10-21T14:38:08.612Z,11.53
2018-10-21T14:40:38.358Z,10.83
2018-10-21T14:43:08.086Z,11.50
2018-10-21T14:45:38.596Z,10.90
2018-10-21T14:48:08.492Z,11.23
2018-10-21T14:50:38.266Z,11.67
2018-10-21T14:53:08.148Z,11.40
2018-10-21T14:55:37.861Z,11.93
2018-10-21T14:58:07.714Z,13.10
2018-10-21T15:00:37.688Z,11.87
2018-10-21T15:03:07.664Z,12.80
2018-10-21T15:05:37.529Z,13.00
2018-10-21T15:08:07.409Z,12.37
2018-10-21T15:10:37.304Z,13.00
2018-10-21T15:13:07.246Z,13.43
2018-10-21T15:15:37.091Z,13.90
2018-10-21T15:18:06.861Z,13.17
2018-10-21T15:20:36.799Z,14.00
2018-10-21T15:23:07.288Z,13.10
2018-10-21T15:25:36.984Z,14.23
2018-10-21T15:28:07.194Z,12.87
2018-10-21T15:30:37.099Z,12.77
2018-10-21T15:33:06.715Z,12.30
2018-10-21T15:35:36.483Z,12.67
2018-10-21T15:38:06.360Z,12.73
2018-10-21T15:40:36.208Z,12.37
2018-10-21T15:43:05.915Z,12.80
2018-10-21T15:45:35.664Z,12.03
2018-10-21T15:48:05.396Z,11.63
2018-10-21T15:50:35.146Z,12.87
2018-10-21T15:53:05.076Z,13.57
2018-10-21T15:55:34.994Z,10.70
2018-10-21T15:58:04.808Z,11.33
2018-10-21T16:00:34.457Z,11.70
2018-10-21T16:03:03.985Z,15.90
2018-10-21T16:05:33.666Z,12.53
2018-10-21T16:08:04.143Z,12.30
2018-10-21T16:10:34.811Z,13.40
2018-10-21T16:13:05.057Z,12.50
2018-10-21T16:15:34.813Z,11.57
2018-10-21T16:18:04.525Z,19.33
2018-10-21T16:20:34.377Z,13.27
2018-10-21T16:23:04.046Z,13.03
2018-10-21T16:25:34.351Z,12.90
2018-10-21T16:28:04.754Z,11.53
2018-10-21T16:30:34.567Z,12.63
2018-10-21T16:33:04.391Z,20.53
2018-10-21T16:35:34.117Z,15.83
2018-10-21T16:38:03.927Z,14.00
2018-10-21T16:40:33.732Z,14.53
2018-10-21T16:43:03.468Z,12.77
2018-10-21T16:45:33.202Z,13.73
2018-10-21T16:48:03.032Z,13.20
2018-10-21T16:50:32.752Z,17.27
2018-10-21T16:53:02.647Z,14.93
2018-10-21T16:55:32.381Z,13.30
2018-10-21T16:58:02.198Z,13.67
2018-10-21T17:00:32.087Z,13.10
2018-10-21T17:03:01.706Z,13.77
2018-10-21T17:05:31.547Z,12.67
2018-10-21T17:08:01.480Z,12.93
2018-10-21T17:10:31.917Z,13.47
2018-10-21T17:13:02.578Z,15.57
2018-10-21T17:15:32.423Z,12.20
2018-10-21T17:18:02.366Z,11.77
2018-10-21T17:20:32.108Z,12.00
2018-10-21T17:23:01.726Z,12.67
2018-10-21T17:25:32.111Z,12.77
2018-10-21T17:28:02.011Z,13.97
2018-10-21T17:30:31.776Z,16.23
2018-10-21T17:33:02.631Z,13.03
2018-10-21T17:35:33.164Z,12.60
2018-10-21T17:38:02.808Z,13.13
2018-10-21T17:40:32.595Z,13.03
2018-10-21T17:43:02.303Z,12.80
2018-10-21T17:45:32.090Z,15.43
2018-10-21T17:48:01.891Z,13.37
2018-10-21T17:50:31.690Z,11.97
2018-10-21T17:53:01.309Z,15.07
2018-10-21T17:55:30.954Z,14.03
2018-10-21T17:58:00.975Z,14.00
2018-10-21T18:00:30.572Z,13.80
2018-10-21T18:03:00.368Z,13.73
2018-10-21T18:05:30.181Z,14.83
2018-10-21T18:07:59.896Z,15.77
2018-10-21T18:10:29.639Z,14.17
2018-10-21T18:13:00.984Z,15.27
2018-10-21T18:15:31.330Z,14.40
2018-10-21T18:18:01.216Z,19.10
2018-10-21T18:20:30.859Z,16.37
2018-10-21T18:23:00.365Z,15.93
2018-10-21T18:25:30.344Z,16.07
2018-10-21T18:28:01.285Z,15.33
2018-10-21T18:30:30.971Z,16.73
2018-10-21T18:33:00.780Z,14.97
2018-10-21T18:35:30.505Z,14.63
2018-10-21T18:38:00.254Z,14.47
2018-10-21T18:40:30.082Z,14.83
2018-10-21T18:42:59.812Z,15.23
2018-10-21T18:45:29.545Z,16.73
2018-10-21T18:47:59.349Z,17.17
2018-10-21T18:50:28.999Z,16.87
2018-10-21T18:52:58.617Z,17.27
2018-10-21T18:55:28.312Z,14.93
2018-10-21T18:57:58.075Z,12.97
2018-10-21T19:00:27.867Z,14.30
2018-10-21T19:02:57.531Z,13.43
2018-10-21T19:05:27.292Z,14.13
2018-10-21T19:07:56.973Z,13.90
2018-10-21T19:10:26.834Z,14.60
2018-10-21T19:13:00.053Z,13.70
2018-10-21T19:15:26.618Z,13.43
2018-10-21T19:17:56.372Z,13.33
2018-10-21T19:20:26.269Z,14.47
2018-10-21T19:22:55.911Z,14.17
2018-10-21T19:25:25.727Z,13.30
2018-10-21T19:27:55.412Z,17.57
2018-10-21T19:30:25.148Z,14.03
2018-10-21T19:32:55.011Z,13.10
2018-10-21T19:35:24.702Z,14.40
2018-10-21T19:37:54.446Z,14.30
2018-10-21T19:40:24.195Z,15.10
2018-10-21T19:42:53.865Z,15.67
2018-10-21T19:45:23.684Z,15.13
2018-10-21T19:47:53.286Z,13.23
2018-10-21T19:50:22.970Z,14.97
2018-10-21T19:52:52.577Z,14.10
2018-10-21T19:55:22.206Z,14.47
2018-10-21T19:57:51.952Z,14.33
2018-10-21T20:00:21.776Z,15.00
2018-10-21T20:02:51.483Z,14.97
2018-10-21T20:05:21.268Z,16.13
2018-10-21T20:07:51.048Z,13.70
2018-10-21T20:10:20.874Z,13.90
2018-10-21T20:12:51.465Z,15.13
2018-10-21T20:15:21.200Z,19.10
2018-10-21T20:17:51.726Z,14.77
2018-10-21T20:20:21.531Z,14.90
2018-10-21T20:22:51.117Z,15.57
2018-10-21T20:25:20.807Z,18.20
2018-10-21T20:27:50.628Z,16.83
2018-10-21T20:30:22.321Z,21.87
2018-10-21T20:32:52.250Z,17.03
2018-10-21T20:35:22.031Z,18.83
2018-10-21T20:37:51.662Z,16.00
2018-10-21T20:40:21.427Z,16.37
2018-10-21T20:42:51.145Z,18.77
2018-10-21T20:45:20.877Z,19.30
2018-10-21T20:47:52.078Z,18.90
2018-10-21T20:50:21.574Z,23.67
2018-10-21T20:52:51.198Z,26.13
2018-10-21T20:55:21.044Z,26.17
2018-10-21T20:57:50.646Z,26.17
2018-10-21T21:00:20.361Z,26.53
2018-10-21T21:02:50.231Z,23.17
2018-10-21T21:05:19.840Z,42.57
2018-10-21T21:07:49.458Z,26.30
2018-10-21T21:10:19.255Z,23.03
2018-10-21T21:12:48.975Z,22.80
2018-10-21T21:15:18.623Z,22.47
2018-10-21T21:17:48.557Z,22.43
2018-10-21T21:20:18.346Z,21.80
2018-10-21T21:22:51.432Z,22.17
2018-10-21T21:25:21.161Z,33.57
2018-10-21T21:27:50.963Z,24.93
2018-10-21T21:30:20.527Z,26.17
2018-10-21T21:32:50.157Z,22.43
2018-10-21T21:35:20.195Z,22.40
2018-10-21T21:37:49.892Z,24.07
2018-10-21T21:40:19.706Z,23.80
2018-10-21T21:42:49.415Z,20.77
2018-10-21T21:45:19.557Z,26.27
2018-10-21T21:47:49.317Z,22.27
2018-10-21T21:50:19.155Z,24.70
2018-10-21T21:52:50.949Z,24.03
2018-10-21T21:55:20.707Z,24.87
2018-10-21T21:57:50.379Z,24.47
2018-10-21T22:00:20.240Z,23.70
2018-10-21T22:02:50.005Z,24.37
2018-10-21T22:05:19.633Z,24.50
2018-10-21T22:07:49.204Z,19.97
2018-10-21T22:10:19.205Z,22.90
2018-10-21T22:12:48.683Z,24.53
2018-10-21T22:15:18.274Z,25.30
2018-10-21T22:17:48.470Z,23.43
2018-10-21T22:20:18.177Z,25.40
2018-10-21T22:22:47.964Z,24.47
2018-10-21T22:25:17.760Z,25.07
2018-10-21T22:27:47.537Z,24.20
2018-10-21T22:30:17.397Z,27.37
2018-10-21T22:32:46.961Z,23.80
2018-10-21T22:35:16.747Z,24.97
2018-10-21T22:37:46.602Z,27.23
2018-10-21T22:40:17.234Z,24.00
2018-10-21T22:42:47.059Z,23.87
2018-10-21T22:45:16.932Z,22.53
2018-10-21T22:47:46.896Z,24.27
2018-10-21T22:50:16.643Z,21.17
2018-10-21T22:52:46.585Z,22.27
2018-10-21T22:55:16.292Z,21.13
2018-10-21T22:57:45.947Z,21.97
2018-10-21T23:00:15.910Z,21.77
2018-10-21T23:02:49.639Z,21.20
2018-10-21T23:05:19.433Z,22.63
2018-10-21T23:07:49.254Z,22.23
2018-10-21T23:10:19.287Z,22.13
2018-10-21T23:12:49.085Z,22.43
2018-10-21T23:15:18.748Z,22.67
2018-10-21T23:17:48.613Z,21.93
2018-10-21T23:20:18.361Z,23.07
2018-10-21T23:22:48.059Z,22.43
2018-10-21T23:25:17.837Z,23.20
2018-10-21T23:27:47.645Z,22.60
2018-10-21T23:30:18.601Z,23.87
2018-10-21T23:32:48.217Z,22.93
2018-10-21T23:35:17.977Z,22.87
2018-10-21T23:37:47.552Z,23.03
2018-10-21T23:40:17.365Z,22.93
2018-10-21T23:42:47.160Z,23.87
2018-10-21T23:45:16.937Z,23.63
2018-10-21T23:47:46.800Z,24.10
2018-10-21T23:50:16.580Z,24.03
2018-10-21T23:52:46.248Z,22.80
2018-10-21T23:55:16.875Z,24.37
2018-10-21T23:57:47.341Z,25.67
